Melinda Brent — WDC2606 — position and weather

sailwx.info

Track history (hours):
 
Tides and Currents Weather Stations Pressure Air Temp Water Temp Dewpoint Dewpoint Depression Visibility Wind Speed Wind Dir Waves Ship Positions

Melinda Brent

Owner: Kirby Inland Marine, LP, Houston, TX. More information available from US FCC via Universal Licensing System and Coast Guard Vessel Documentation Center.

Last reported at 2018-Feb-22 16:12 UTC. Time now 2018-Feb-24 10:31 UTC.
Position N 29°32' W 094°29'.

Length 117 m; draft 3 m.

Type: . MMSI: 366995520.

Date/timePositionNaut miles runAvg speedWind from/ knotsBaromVisibWave heightAir tempDewpointWater temp
2018-Feb-22 16:12N 29°32' W 094°29'1 5.4
2018-Feb-22 16:00N 29°33' W 094°28'3 6.0
2018-Feb-22 15:30N 29°34' W 094°25'2 4.7
2018-Feb-22 14:59N 29°36' W 094°23'0 0.6
2018-Feb-22 14:24N 29°36' W 094°22'0 0.0
2018-Feb-22 13:59N 29°36' W 094°22'0 0.0
2018-Feb-22 13:26N 29°36' W 094°22'0 0.0
2018-Feb-22 12:58N 29°36' W 094°22'0 0.0
2018-Feb-22 12:30N 29°36' W 094°22'0 0.0
2018-Feb-22 11:59N 29°36' W 094°22'0 0.0
2018-Feb-22 05:29N 29°36' W 094°22'0 0.0
2018-Feb-22 03:54N 29°36' W 094°22'0 0.0
2018-Feb-21 23:45N 29°36' W 094°22'0 0.0
2018-Feb-21 23:05N 29°36' W 094°22'0 0.0
2018-Feb-21 22:55N 29°36' W 094°22'1 2.7
2018-Feb-21 22:30N 29°37' W 094°21'0 0.0
2018-Feb-21 22:00N 29°37' W 094°21'0 0.0
2018-Feb-21 21:28N 29°37' W 094°21'0 0.0
2018-Feb-21 21:00N 29°37' W 094°21'0 0.1
2018-Feb-21 20:29N 29°37' W 094°21'3 0.7
2018-Feb-21 15:43N 29°35' W 094°25'10 0.4
2018-Feb-20 13:07N 29°30' W 094°34'0 0.0
2018-Feb-20 13:00N 29°30' W 094°34'0 0.0
2018-Feb-20 09:39N 29°30' W 094°34'0 0.0
2018-Feb-20 09:28N 29°30' W 094°34'0 0.0
2018-Feb-20 07:22N 29°30' W 094°34'0 0.0
2018-Feb-20 06:55N 29°30' W 094°34'1 2.9
2018-Feb-20 06:27N 29°29' W 094°36'8 0.7
2018-Feb-19 19:48N 29°25' W 094°43'0 0.2
2018-Feb-19 16:56N 29°26' W 094°43'0 0.0
2018-Feb-19 14:18N 29°26' W 094°43'0 0.0
2018-Feb-19 13:57N 29°26' W 094°43'0 0.0
2018-Feb-19 13:28N 29°26' W 094°43'0 0.0
2018-Feb-19 12:39N 29°26' W 094°43'0 0.0
2018-Feb-19 10:36N 29°26' W 094°43'0 0.0
2018-Feb-19 09:58N 29°26' W 094°43'0 0.0
2018-Feb-19 09:30N 29°26' W 094°43'0 0.0
2018-Feb-19 08:59N 29°26' W 094°43'0 0.0
2018-Feb-19 08:30N 29°26' W 094°43'0 0.0
2018-Feb-19 08:00N 29°26' W 094°43'0 0.0
2018-Feb-19 07:30N 29°26' W 094°43'0 0.0
2018-Feb-19 07:00N 29°26' W 094°43'0 0.0
2018-Feb-19 06:24N 29°26' W 094°43'0 0.0
2018-Feb-19 05:53N 29°26' W 094°43'0 0.0
2018-Feb-19 05:30N 29°26' W 094°43'0 0.0
2018-Feb-19 04:59N 29°26' W 094°43'0 0.0
2018-Feb-18 16:24N 29°26' W 094°43'0 0.0
2018-Feb-18 14:49N 29°26' W 094°43'0 0.0
2018-Feb-18 14:24N 29°26' W 094°43'0 0.0
2018-Feb-17 08:37N 29°26' W 094°43'0 0.0
2018-Feb-17 05:53N 29°26' W 094°43'0 0.0
2018-Feb-17 05:28N 29°26' W 094°43'0 0.0
2018-Feb-17 04:31N 29°26' W 094°43'0 0.0
2018-Feb-17 04:06N 29°26' W 094°43'0 0.0
2018-Feb-17 03:52N 29°26' W 094°43'0 0.0
2018-Feb-17 03:28N 29°26' W 094°43'0 0.0
2018-Feb-17 02:59N 29°26' W 094°43'0 0.0
2018-Feb-17 02:24N 29°26' W 094°43'0 0.0
2018-Feb-17 01:55N 29°26' W 094°43'0 0.0
2018-Feb-17 01:24N 29°26' W 094°43'0 0.0
2018-Feb-17 00:09N 29°26' W 094°43'0 0.0
2018-Feb-16 23:57N 29°26' W 094°43'0 0.0
2018-Feb-16 23:30N 29°26' W 094°43'0 0.0
2018-Feb-16 08:30N 29°26' W 094°43'0 0.0
2018-Feb-16 07:59N 29°26' W 094°43'0 0.0
2018-Feb-16 07:29N 29°26' W 094°43'0 0.0
2018-Feb-16 07:00N 29°26' W 094°43'0 0.0
2018-Feb-16 06:18N 29°26' W 094°43'0 0.0
2018-Feb-16 06:00N 29°26' W 094°43'0 0.0
2018-Feb-16 05:26N 29°26' W 094°43'0 0.0
2018-Feb-16 04:49N 29°26' W 094°43'0 0.0
2018-Feb-16 04:28N 29°26' W 094°43'0 0.0
2018-Feb-16 02:34N 29°26' W 094°43'0 0.0
2018-Feb-16 02:27N 29°26' W 094°43'0 0.0
2018-Feb-16 02:00N 29°26' W 094°43'0 0.0
2018-Feb-16 01:28N 29°26' W 094°43'0 0.0
2018-Feb-16 01:01N 29°26' W 094°43'0 0.0
2018-Feb-16 00:17N 29°26' W 094°43'0 0.0
2018-Feb-15 10:29N 29°26' W 094°43'0 0.0
2018-Feb-15 09:58N 29°26' W 094°43'0 0.0
2018-Feb-15 09:20N 29°26' W 094°43'0 0.0
2018-Feb-15 08:44N 29°26' W 094°43'0 0.0
2018-Feb-15 08:29N 29°26' W 094°43'0 0.0
2018-Feb-15 07:58N 29°26' W 094°43'0 0.0
2018-Feb-15 07:27N 29°26' W 094°43'0 0.0
2018-Feb-15 06:52N 29°26' W 094°43'0 0.0
2018-Feb-15 06:22N 29°26' W 094°43'0 0.0
2018-Feb-15 06:00N 29°26' W 094°43'0 0.0
2018-Feb-15 05:30N 29°26' W 094°43'0 0.0
2018-Feb-15 05:00N 29°26' W 094°43'0 0.0
2018-Feb-15 04:30N 29°26' W 094°43'0 0.0
2018-Feb-15 04:00N 29°26' W 094°43'0 0.0
2018-Feb-15 03:31N 29°26' W 094°43'0 0.0
2018-Feb-15 02:58N 29°26' W 094°43'0 0.0
2018-Feb-15 02:29N 29°26' W 094°43'0 0.0
2018-Feb-14 23:19N 29°26' W 094°43'0 0.0
2018-Feb-14 22:57N 29°26' W 094°43'11 0.2
2018-Feb-13 00:20N 29°32' W 094°54'2 7.2
2018-Feb-13 00:01N 29°34' W 094°55'4 7.5
2018-Feb-12 23:31N 29°37' W 094°57'4 7.8
2018-Feb-12 23:01N 29°40' W 094°59'  
Track history (hours):
 
Tides and Currents Weather Stations Pressure Air Temp Water Temp Dewpoint Dewpoint Depression Visibility Wind Speed Wind Dir Waves Ship Positions

Melinda Brent

Owner: Kirby Inland Marine, LP, Houston, TX. More information available from US FCC via Universal Licensing System and Coast Guard Vessel Documentation Center.

Last reported at 2018-Feb-22 16:12 UTC. Time now 2018-Feb-24 10:31 UTC.
Position N 29°32' W 094°29'.

Length 117 m; draft 3 m.

Type: . MMSI: 366995520.

Date/timePositionNaut miles runAvg speedWind from/ knotsBaromVisibWave heightAir tempDewpointWater temp
2018-Feb-22 16:12N 29°32' W 094°29'1 5.4
2018-Feb-22 16:00N 29°33' W 094°28'3 6.0
2018-Feb-22 15:30N 29°34' W 094°25'2 4.7
2018-Feb-22 14:59N 29°36' W 094°23'0 0.6
2018-Feb-22 14:24N 29°36' W 094°22'0 0.0
2018-Feb-22 13:59N 29°36' W 094°22'0 0.0
2018-Feb-22 13:26N 29°36' W 094°22'0 0.0
2018-Feb-22 12:58N 29°36' W 094°22'0 0.0
2018-Feb-22 12:30N 29°36' W 094°22'0 0.0
2018-Feb-22 11:59N 29°36' W 094°22'0 0.0
2018-Feb-22 05:29N 29°36' W 094°22'0 0.0
2018-Feb-22 03:54N 29°36' W 094°22'0 0.0
2018-Feb-21 23:45N 29°36' W 094°22'0 0.0
2018-Feb-21 23:05N 29°36' W 094°22'0 0.0
2018-Feb-21 22:55N 29°36' W 094°22'1 2.7
2018-Feb-21 22:30N 29°37' W 094°21'0 0.0
2018-Feb-21 22:00N 29°37' W 094°21'0 0.0
2018-Feb-21 21:28N 29°37' W 094°21'0 0.0
2018-Feb-21 21:00N 29°37' W 094°21'0 0.1
2018-Feb-21 20:29N 29°37' W 094°21'3 0.7
2018-Feb-21 15:43N 29°35' W 094°25'10 0.4
2018-Feb-20 13:07N 29°30' W 094°34'0 0.0
2018-Feb-20 13:00N 29°30' W 094°34'0 0.0
2018-Feb-20 09:39N 29°30' W 094°34'0 0.0
2018-Feb-20 09:28N 29°30' W 094°34'0 0.0
2018-Feb-20 07:22N 29°30' W 094°34'0 0.0
2018-Feb-20 06:55N 29°30' W 094°34'1 2.9
2018-Feb-20 06:27N 29°29' W 094°36'8 0.7
2018-Feb-19 19:48N 29°25' W 094°43'0 0.2
2018-Feb-19 16:56N 29°26' W 094°43'0 0.0
2018-Feb-19 14:18N 29°26' W 094°43'0 0.0
2018-Feb-19 13:57N 29°26' W 094°43'0 0.0
2018-Feb-19 13:28N 29°26' W 094°43'0 0.0
2018-Feb-19 12:39N 29°26' W 094°43'0 0.0
2018-Feb-19 10:36N 29°26' W 094°43'0 0.0
2018-Feb-19 09:58N 29°26' W 094°43'0 0.0
2018-Feb-19 09:30N 29°26' W 094°43'0 0.0
2018-Feb-19 08:59N 29°26' W 094°43'0 0.0
2018-Feb-19 08:30N 29°26' W 094°43'0 0.0
2018-Feb-19 08:00N 29°26' W 094°43'0 0.0
2018-Feb-19 07:30N 29°26' W 094°43'0 0.0
2018-Feb-19 07:00N 29°26' W 094°43'0 0.0
2018-Feb-19 06:24N 29°26' W 094°43'0 0.0
2018-Feb-19 05:53N 29°26' W 094°43'0 0.0
2018-Feb-19 05:30N 29°26' W 094°43'0 0.0
2018-Feb-19 04:59N 29°26' W 094°43'0 0.0
2018-Feb-18 16:24N 29°26' W 094°43'0 0.0
2018-Feb-18 14:49N 29°26' W 094°43'0 0.0
2018-Feb-18 14:24N 29°26' W 094°43'0 0.0
2018-Feb-17 08:37N 29°26' W 094°43'0 0.0
2018-Feb-17 05:53N 29°26' W 094°43'0 0.0
2018-Feb-17 05:28N 29°26' W 094°43'0 0.0
2018-Feb-17 04:31N 29°26' W 094°43'0 0.0
2018-Feb-17 04:06N 29°26' W 094°43'0 0.0
2018-Feb-17 03:52N 29°26' W 094°43'0 0.0
2018-Feb-17 03:28N 29°26' W 094°43'0 0.0
2018-Feb-17 02:59N 29°26' W 094°43'0 0.0
2018-Feb-17 02:24N 29°26' W 094°43'0 0.0
2018-Feb-17 01:55N 29°26' W 094°43'0 0.0
2018-Feb-17 01:24N 29°26' W 094°43'0 0.0
2018-Feb-17 00:09N 29°26' W 094°43'0 0.0
2018-Feb-16 23:57N 29°26' W 094°43'0 0.0
2018-Feb-16 23:30N 29°26' W 094°43'0 0.0
2018-Feb-16 08:30N 29°26' W 094°43'0 0.0
2018-Feb-16 07:59N 29°26' W 094°43'0 0.0
2018-Feb-16 07:29N 29°26' W 094°43'0 0.0
2018-Feb-16 07:00N 29°26' W 094°43'0 0.0
2018-Feb-16 06:18N 29°26' W 094°43'0 0.0
2018-Feb-16 06:00N 29°26' W 094°43'0 0.0
2018-Feb-16 05:26N 29°26' W 094°43'0 0.0
2018-Feb-16 04:49N 29°26' W 094°43'0 0.0
2018-Feb-16 04:28N 29°26' W 094°43'0 0.0
2018-Feb-16 02:34N 29°26' W 094°43'0 0.0
2018-Feb-16 02:27N 29°26' W 094°43'0 0.0
2018-Feb-16 02:00N 29°26' W 094°43'0 0.0
2018-Feb-16 01:28N 29°26' W 094°43'0 0.0
2018-Feb-16 01:01N 29°26' W 094°43'0 0.0
2018-Feb-16 00:17N 29°26' W 094°43'0 0.0
2018-Feb-15 10:29N 29°26' W 094°43'0 0.0
2018-Feb-15 09:58N 29°26' W 094°43'0 0.0
2018-Feb-15 09:20N 29°26' W 094°43'0 0.0
2018-Feb-15 08:44N 29°26' W 094°43'0 0.0
2018-Feb-15 08:29N 29°26' W 094°43'0 0.0
2018-Feb-15 07:58N 29°26' W 094°43'0 0.0
2018-Feb-15 07:27N 29°26' W 094°43'0 0.0
2018-Feb-15 06:52N 29°26' W 094°43'0 0.0
2018-Feb-15 06:22N 29°26' W 094°43'0 0.0
2018-Feb-15 06:00N 29°26' W 094°43'0 0.0
2018-Feb-15 05:30N 29°26' W 094°43'0 0.0
2018-Feb-15 05:00N 29°26' W 094°43'0 0.0
2018-Feb-15 04:30N 29°26' W 094°43'0 0.0
2018-Feb-15 04:00N 29°26' W 094°43'0 0.0
2018-Feb-15 03:31N 29°26' W 094°43'0 0.0
2018-Feb-15 02:58N 29°26' W 094°43'0 0.0
2018-Feb-15 02:29N 29°26' W 094°43'0 0.0
2018-Feb-14 23:19N 29°26' W 094°43'0 0.0
2018-Feb-14 22:57N 29°26' W 094°43'11 0.2
2018-Feb-13 00:20N 29°32' W 094°54'2 7.2
2018-Feb-13 00:01N 29°34' W 094°55'4 7.5
2018-Feb-12 23:31N 29°37' W 094°57'4 7.8
2018-Feb-12 23:01N 29°40' W 094°59'  

Dump ship's entire track history